2004 SUDAL (2004093N07154)


On this page: IBTrACS data - Map and Plots - Positions - Intensities - Original source data

Summary

Start Apr 2
End Apr 18
Basins EP
WP
LMI 130 kt
Sources jtwc_wp
tokyo
cma
hko
In WMO? Yes
Previous storm 2004 TD21S (SI)
Previous in basin 2004 TD0318 (WP)
Concurrent storms 2004 SUDAL (WP)
2004 TS22S (SP)
Next in basin Missing
Next storm 2004 TS22S (SP)

top of page IBTrACS Data: File Access

top of page HURSAT Data: File Access

Image of storm

top of page Plots:

Map of storm track will not appear if FTP is down
Time series of cyclone Maximum Sustained Wind will not appear if FTP is down
Time series of cyclone Minimum Central Pressure will not appear if FTP is down

top of page Track Data:Position

jtwc_wp tokyo cma hko
Date Lat Lon Lat Lon Lat Lon Lat Lon
2004-04-02 00:00:00 6.9 153.6
2004-04-02 06:00:00 6.7 153.2
2004-04-02 12:00:00 6.5 152.9
2004-04-02 18:00:00 6.3 152.6 6.5 152.8 6.4 152.8
2004-04-03 00:00:00 6.1 152.2 6.4 152.3 6.3 152.3
2004-04-03 06:00:00 6.1 151.7 6.5 151.9 6.4 151.9
2004-04-03 12:00:00 6.3 151.2 6.6 151.4 6.6 151.4
2004-04-03 18:00:00 6.4 150.7 6.5 151.0 6.5 151.0
2004-04-04 00:00:00 6.4 150.3 6.5 150.6 6.5 150.6
2004-04-04 06:00:00 6.5 149.8 6.7 150.1 6.7 150.1
2004-04-04 12:00:00 6.9 149.5 7.1 149.6 7.1 149.6 6.9 149.6
2004-04-04 18:00:00 7.4 149.2 7.8 149.3 7.8 149.3 7.3 148.9
2004-04-05 00:00:00 8.1 149.1 8.4 149.1 8.4 149.1 8.3 149.0
2004-04-05 06:00:00 8.9 148.9 8.8 148.8 8.8 148.8 8.8 148.9
2004-04-05 12:00:00 9.4 148.3 9.2 148.6 9.3 148.6 9.3 148.6
2004-04-05 18:00:00 9.5 147.6 9.5 147.7 9.5 147.7 9.6 147.7
2004-04-06 00:00:00 9.1 146.9 9.3 147.0 9.3 147.0 9.3 147.0
2004-04-06 06:00:00 9.1 146.1 9.2 146.2 9.2 146.2 9.1 146.1
2004-04-06 12:00:00 9.4 145.4 9.5 145.4 9.5 145.4 9.5 145.4
2004-04-06 18:00:00 10.0 144.9 9.9 144.9 9.9 144.9 9.8 145.0
2004-04-07 00:00:00 10.1 144.1 10.0 144.0 10.0 144.1 10.1 144.4
2004-04-07 06:00:00 10.1 143.1 9.9 143.0 9.9 143.0 10.1 143.3
2004-04-07 12:00:00 9.7 142.2 9.6 142.2 9.7 142.2 9.8 142.3
2004-04-07 18:00:00 9.4 141.3 9.3 141.5 9.3 141.5 9.5 141.4
2004-04-08 00:00:00 9.2 140.6 9.0 140.6 9.1 140.6 9.2 140.6
jtwc_wp tokyo cma hko
2004-04-08 06:00:00 8.9 139.9 8.8 139.9 8.8 139.8 8.9 140.0
2004-04-08 12:00:00 8.8 139.1 8.8 139.1 8.8 139.1 8.8 139.1
2004-04-08 18:00:00 9.0 138.4 9.0 138.5 8.9 138.5 8.9 138.5
2004-04-09 00:00:00 9.2 138.0 9.2 138.0 9.1 138.0 9.1 138.1
2004-04-09 06:00:00 9.6 137.2 9.5 137.2 9.5 137.2 9.5 137.3
2004-04-09 12:00:00 10.0 136.5 9.9 136.6 9.9 136.6 9.9 136.3
2004-04-09 18:00:00 10.4 135.8 10.3 135.8 10.3 135.8 10.3 135.8
2004-04-10 00:00:00 10.9 135.1 10.8 135.2 10.8 135.2 10.8 135.1
2004-04-10 06:00:00 11.4 134.3 11.4 134.4 11.3 134.4 11.2 134.5
2004-04-10 12:00:00 11.8 133.5 11.9 133.5 11.9 133.5 11.8 133.6
2004-04-10 18:00:00 12.4 132.7 12.4 132.8 12.4 132.8 12.4 132.8
2004-04-11 00:00:00 13.2 132.2 13.1 132.1 13.1 132.1 13.0 132.3
2004-04-11 06:00:00 13.7 131.7 13.6 131.7 13.6 131.7 13.7 131.7
2004-04-11 12:00:00 14.3 131.4 14.2 131.4 14.2 131.4 14.3 131.5
2004-04-11 18:00:00 14.8 131.2 14.8 131.2 14.8 131.2 14.9 131.2
2004-04-12 00:00:00 15.3 131.0 15.4 131.0 15.4 131.0 15.4 131.0
2004-04-12 06:00:00 15.8 130.9 15.7 131.0 15.7 131.0 15.7 130.9
2004-04-12 12:00:00 16.3 131.1 16.1 131.1 16.1 131.1 16.1 131.0
2004-04-12 18:00:00 16.7 131.3 16.6 131.3 16.6 131.3 16.7 131.2
2004-04-13 00:00:00 17.2 131.6 17.2 131.6 17.2 131.6 17.2 131.6
2004-04-13 06:00:00 17.8 132.0 17.8 132.0 17.8 132.0 17.8 132.0
2004-04-13 12:00:00 18.6 132.5 18.7 132.6 18.6 132.5 18.6 132.5
2004-04-13 18:00:00 19.5 133.1 19.5 133.2 19.5 133.1 19.4 133.1
2004-04-14 00:00:00 20.5 133.9 20.4 134.0 20.4 133.9 20.5 134.0
jtwc_wp tokyo cma hko
2004-04-14 06:00:00 21.4 135.1 21.4 135.1 21.4 135.0 21.4 135.1
2004-04-14 12:00:00 22.3 136.4 22.4 136.5 22.4 136.4 22.3 136.3
2004-04-14 18:00:00 23.1 137.8 23.1 138.0 23.1 138.0 23.3 138.0
2004-04-15 00:00:00 23.8 139.4 23.7 139.1 23.7 139.1 23.8 139.0
2004-04-15 06:00:00 24.4 141.0 24.5 141.0 24.4 141.0 24.5 141.2
2004-04-15 12:00:00 25.2 143.1 25.3 143.1 25.3 143.1 25.2 143.2
2004-04-15 18:00:00 26.1 144.5 26.5 146.3 26.5 146.2 26.4 145.6
2004-04-16 00:00:00 27.5 148.1 27.5 148.1 27.6 148.1
2004-04-16 06:00:00 28.5 150.8 28.5 150.7 28.5 150.8
2004-04-16 12:00:00 29.0 153.0 29.0 153.0
2004-04-16 18:00:00 30.2 157.8 30.4 157.8
2004-04-17 00:00:00 32.7 162.0 32.7 162.0
2004-04-17 06:00:00 35.1 168.0 35.1 168.0
2004-04-17 12:00:00 37.5 173.7 37.5 173.7
2004-04-17 18:00:00 39.3 180.0 39.3 180.0
2004-04-18 00:00:00 41.5 187.4

top of pageTrack Data:Intensity

jtwc_wp tokyo cma hko
Date Wind Pres Wind Pres Wind Pres Wind Pres
2004-04-02 00:00:00 25. 1002.
2004-04-02 06:00:00 25. 1002.
2004-04-02 12:00:00 25. 1002.
2004-04-02 18:00:00 25. 1002. 1004. 19. 1004.
2004-04-03 00:00:00 25. 1002. 1004. 19. 1004.
2004-04-03 06:00:00 25. 1002. 1004. 23. 1004.
2004-04-03 12:00:00 25. 1002. 1004. 23. 1004.
2004-04-03 18:00:00 25. 1002. 1002. 23. 1002.
2004-04-04 00:00:00 30. 1000. 1002. 29. 1002.
2004-04-04 06:00:00 30. 1000. 1000. 29. 1000.
2004-04-04 12:00:00 35. 997. 1000. 29. 1000. 30. 1000.
2004-04-04 18:00:00 35. 997. 1000. 29. 1000. 30. 1000.
2004-04-05 00:00:00 40. 997. 35. 998. 35. 998. 35. 996.
2004-04-05 06:00:00 50. 987. 40. 990. 39. 995. 40. 992.
2004-04-05 12:00:00 55. 984. 40. 990. 39. 995. 40. 992.
2004-04-05 18:00:00 55. 984. 45. 985. 45. 990. 45. 988.
2004-04-06 00:00:00 65. 976. 50. 980. 49. 990. 50. 984.
2004-04-06 06:00:00 65. 976. 50. 980. 49. 990. 55. 980.
2004-04-06 12:00:00 75. 967. 55. 980. 54. 985. 55. 980.
2004-04-06 18:00:00 75. 967. 60. 975. 58. 980. 60. 975.
2004-04-07 00:00:00 80. 963. 60. 975. 58. 980. 60. 975.
2004-04-07 06:00:00 90. 954. 60. 975. 58. 980. 65. 970.
2004-04-07 12:00:00 90. 954. 60. 975. 58. 980. 70. 965.
2004-04-07 18:00:00 95. 949. 65. 970. 64. 975. 70. 965.
2004-04-08 00:00:00 100. 944. 70. 960. 68. 970. 75. 960.
jtwc_wp tokyo cma hko
2004-04-08 06:00:00 115. 927. 75. 955. 78. 960. 80. 955.
2004-04-08 12:00:00 115. 927. 80. 950. 78. 960. 85. 950.
2004-04-08 18:00:00 110. 933. 80. 950. 78. 960. 85. 950.
2004-04-09 00:00:00 110. 933. 80. 950. 87. 950. 85. 950.
2004-04-09 06:00:00 110. 933. 80. 950. 87. 950. 85. 950.
2004-04-09 12:00:00 115. 927. 80. 950. 97. 945. 85. 950.
2004-04-09 18:00:00 125. 916. 85. 945. 97. 940. 90. 945.
2004-04-10 00:00:00 130. 910. 90. 940. 97. 940. 95. 940.
2004-04-10 06:00:00 130. 910. 90. 940. 97. 940. 95. 940.
2004-04-10 12:00:00 120. 922. 90. 940. 97. 940. 95. 940.
2004-04-10 18:00:00 115. 927. 85. 945. 97. 945. 95. 940.
2004-04-11 00:00:00 115. 927. 85. 945. 87. 950. 95. 940.
2004-04-11 06:00:00 115. 927. 85. 945. 87. 950. 90. 945.
2004-04-11 12:00:00 110. 933. 85. 945. 87. 950. 90. 945.
2004-04-11 18:00:00 115. 927. 85. 945. 87. 950. 90. 945.
2004-04-12 00:00:00 115. 927. 85. 945. 87. 950. 90. 945.
2004-04-12 06:00:00 115. 927. 85. 945. 87. 950. 90. 945.
2004-04-12 12:00:00 120. 922. 85. 945. 87. 950. 90. 945.
2004-04-12 18:00:00 120. 922. 85. 945. 87. 950. 90. 945.
2004-04-13 00:00:00 120. 922. 85. 945. 87. 950. 90. 945.
2004-04-13 06:00:00 125. 916. 85. 945. 87. 950. 90. 945.
2004-04-13 12:00:00 115. 927. 85. 945. 87. 950. 90. 945.
2004-04-13 18:00:00 115. 927. 85. 945. 87. 950. 90. 945.
2004-04-14 00:00:00 105. 938. 80. 950. 87. 950. 85. 950.
jtwc_wp tokyo cma hko
2004-04-14 06:00:00 105. 938. 80. 950. 78. 960. 80. 955.
2004-04-14 12:00:00 100. 944. 80. 955. 78. 965. 80. 955.
2004-04-14 18:00:00 90. 954. 75. 960. 68. 970. 75. 960.
2004-04-15 00:00:00 85. 958. 70. 965. 64. 975. 70. 965.
2004-04-15 06:00:00 70. 972. 60. 970. 58. 980. 60. 975.
2004-04-15 12:00:00 55. 984. 60. 975. 58. 980. 55. 980.
2004-04-15 18:00:00 40. 994. 55. 980. 54. 985. 50. 984.
2004-04-16 00:00:00 50. 985. 49. 990. 50. 984.
2004-04-16 06:00:00 45. 990. 45. 990. 45. 988.
2004-04-16 12:00:00 996. 45. 992.
2004-04-16 18:00:00 992. 45. 992.
2004-04-17 00:00:00 994. 39. 994.
2004-04-17 06:00:00 994. 39. 994.
2004-04-17 12:00:00 996. 39. 996.
2004-04-17 18:00:00 1000. 39. 1000.
2004-04-18 00:00:00 1008.

top of page Links to source data

Source Source file Format
jtwc_wp bwp032004.txt ATCF
tokyo bst_all.txt:Line=53084:SUDAL:401 JMA text table
cma CH2004BST.txt:Storm=3:Sudal CMA text table
hko tc-besttrack-data.txt:Line=30455:SUDAL HKO Text table